createdAt,value
2023-02-06T00:01:15.845Z,23.70
2023-02-06T00:03:43.120Z,24.60
2023-02-06T00:06:10.183Z,25.48
2023-02-06T00:08:37.323Z,22.98
2023-02-06T00:11:07.592Z,22.60
2023-02-06T00:13:36.018Z,23.13
2023-02-06T00:16:03.696Z,21.65
2023-02-06T00:18:31.278Z,22.40
2023-02-06T00:20:58.358Z,22.95
2023-02-06T00:23:25.531Z,22.90
2023-02-06T00:25:52.662Z,25.55
2023-02-06T00:28:19.954Z,23.40
2023-02-06T00:30:48.355Z,24.73
2023-02-06T00:33:15.787Z,24.23
2023-02-06T00:35:42.984Z,25.08
2023-02-06T00:38:13.193Z,25.05
2023-02-06T00:40:40.430Z,22.48
2023-02-06T00:43:07.524Z,22.90
2023-02-06T00:45:34.876Z,24.63
2023-02-06T00:48:02.309Z,23.63
2023-02-06T00:50:30.003Z,24.17
2023-02-06T00:52:57.339Z,24.70
2023-02-06T00:55:24.578Z,24.20
2023-02-06T00:57:51.635Z,24.40
2023-02-06T01:00:19.319Z,24.90
2023-02-06T01:02:46.465Z,24.45
2023-02-06T01:05:14.346Z,25.20
2023-02-06T01:07:41.525Z,26.48
2023-02-06T01:10:11.420Z,24.88
2023-02-06T01:12:40.064Z,25.05
2023-02-06T01:15:10.173Z,23.95
2023-02-06T01:17:38.506Z,24.65
2023-02-06T01:20:10.079Z,23.60
2023-02-06T01:22:37.708Z,23.75
2023-02-06T01:25:06.481Z,27.05
2023-02-06T01:27:36.907Z,26.60
2023-02-06T01:30:06.961Z,24.80
2023-02-06T01:35:07.520Z,25.80
2023-02-06T01:37:35.792Z,26.55
2023-02-06T01:40:04.564Z,25.33
2023-02-06T01:42:35.816Z,26.15
2023-02-06T01:45:27.090Z,27.10
2023-02-06T01:48:06.325Z,26.80
2023-02-06T01:50:36.325Z,26.90
2023-02-06T01:53:06.309Z,25.52
2023-02-06T01:55:36.377Z,25.50
2023-02-06T01:58:05.034Z,25.70
2023-02-06T02:00:32.511Z,24.45
2023-02-06T02:02:59.812Z,24.95
2023-02-06T02:05:26.979Z,25.42
2023-02-06T02:08:02.285Z,26.70
2023-02-06T02:10:30.987Z,25.40
2023-02-06T02:12:58.824Z,26.75
2023-02-06T02:15:47.915Z,25.55
2023-02-06T02:18:35.648Z,26.52
2023-02-06T02:21:33.766Z,26.50
2023-02-06T02:24:03.668Z,27.52
2023-02-06T02:27:08.768Z,27.02
2023-02-06T02:29:51.104Z,25.75
2023-02-06T02:32:44.055Z,25.67
2023-02-06T02:35:31.681Z,24.60
2023-02-06T02:38:16.576Z,24.65
2023-02-06T02:40:57.698Z,26.83
2023-02-06T02:43:31.286Z,25.63
2023-02-06T02:46:29.337Z,24.88
2023-02-06T02:49:03.481Z,26.17
2023-02-06T02:51:31.094Z,25.83
2023-02-06T02:53:58.473Z,26.05
2023-02-06T02:56:29.067Z,27.50
2023-02-06T02:59:05.158Z,28.08
2023-02-06T03:01:37.465Z,26.98
2023-02-06T03:04:11.508Z,27.92
2023-02-06T03:06:56.997Z,24.98
2023-02-06T03:09:38.994Z,25.85
2023-02-06T03:12:20.456Z,26.13
2023-02-06T03:14:53.702Z,27.02
2023-02-06T03:17:36.480Z,25.35
2023-02-06T03:20:08.223Z,26.33
2023-02-06T03:22:37.301Z,27.17
2023-02-06T03:25:10.533Z,27.20
2023-02-06T03:27:40.992Z,26.58
2023-02-06T03:30:10.682Z,25.60
2023-02-06T03:32:42.991Z,27.30
2023-02-06T03:35:18.200Z,25.95
2023-02-06T03:37:46.682Z,28.17
2023-02-06T03:40:14.648Z,27.25
2023-02-06T03:42:52.954Z,27.17
2023-02-06T03:45:32.170Z,27.17
2023-02-06T03:48:04.600Z,24.95
2023-02-06T03:50:34.738Z,26.40
2023-02-06T03:53:04.843Z,25.77
2023-02-06T03:58:06.835Z,26.77
2023-02-06T04:00:35.172Z,27.08
2023-02-06T04:03:03.023Z,27.40
2023-02-06T04:05:30.238Z,25.58
2023-02-06T04:07:57.659Z,26.55
2023-02-06T04:10:26.337Z,27.83
2023-02-06T04:12:54.085Z,27.58
2023-02-06T04:15:21.723Z,26.33
2023-02-06T04:17:59.500Z,25.77
2023-02-06T04:20:27.782Z,26.08
2023-02-06T04:22:54.913Z,24.30
2023-02-06T04:25:22.209Z,25.90
2023-02-06T04:27:50.074Z,25.63
2023-02-06T04:30:18.524Z,25.52
2023-02-06T04:32:45.854Z,24.30
2023-02-06T04:35:13.057Z,25.08
2023-02-06T04:37:40.192Z,23.85
2023-02-06T04:40:07.781Z,25.80
2023-02-06T04:42:34.940Z,22.40
2023-02-06T04:45:02.100Z,22.85
2023-02-06T04:47:29.148Z,23.80
2023-02-06T04:49:56.180Z,24.15
2023-02-06T04:52:23.373Z,23.20
2023-02-06T04:54:50.506Z,21.58
2023-02-06T04:57:17.643Z,21.50
2023-02-06T04:59:44.776Z,21.35
2023-02-06T05:02:11.861Z,21.80
2023-02-06T05:04:39.406Z,22.67
2023-02-06T05:07:06.797Z,21.42
2023-02-06T05:09:34.009Z,20.10
2023-02-06T05:12:01.252Z,21.65
2023-02-06T05:14:28.440Z,20.75
2023-02-06T05:16:55.526Z,20.73
2023-02-06T05:19:22.750Z,22.95
2023-02-06T05:21:49.950Z,20.63
2023-02-06T05:24:17.122Z,21.90
2023-02-06T05:26:45.258Z,19.48
2023-02-06T05:29:12.382Z,20.35
2023-02-06T05:31:39.590Z,21.08
2023-02-06T05:34:06.677Z,21.13
2023-02-06T05:36:33.767Z,20.75
2023-02-06T05:39:00.876Z,21.17
2023-02-06T05:41:28.186Z,19.35
2023-02-06T05:43:55.222Z,19.50
2023-02-06T05:46:22.387Z,20.27
2023-02-06T05:48:49.494Z,20.08
2023-02-06T05:51:17.117Z,18.90
2023-02-06T05:53:44.339Z,18.65
2023-02-06T05:56:11.503Z,20.02
2023-02-06T05:58:38.573Z,20.25
2023-02-06T06:01:05.769Z,19.20
2023-02-06T06:03:33.571Z,20.25
2023-02-06T06:06:00.784Z,20.55
2023-02-06T06:08:28.076Z,21.73
2023-02-06T06:10:55.201Z,19.58
2023-02-06T06:13:22.429Z,19.95
2023-02-06T06:15:53.204Z,19.50
2023-02-06T06:18:21.681Z,20.10
2023-02-06T06:20:49.290Z,19.45
2023-02-06T06:23:16.923Z,19.70
2023-02-06T06:25:44.289Z,19.85
2023-02-06T06:28:11.255Z,19.77
2023-02-06T06:30:38.680Z,20.10
2023-02-06T06:33:06.045Z,20.48
2023-02-06T06:35:33.455Z,18.67
2023-02-06T06:38:00.629Z,20.77
2023-02-06T06:40:27.638Z,19.65
2023-02-06T06:42:54.783Z,19.75
2023-02-06T06:45:21.956Z,19.58
2023-02-06T06:47:49.098Z,19.05
2023-02-06T06:50:16.255Z,18.60
2023-02-06T06:52:43.276Z,18.55
2023-02-06T06:55:10.744Z,19.80
2023-02-06T06:57:37.969Z,19.60
2023-02-06T07:00:05.733Z,18.38
2023-02-06T07:02:32.903Z,18.40
2023-02-06T07:05:00.700Z,20.23
2023-02-06T07:07:28.160Z,20.35
2023-02-06T07:09:55.682Z,20.23
2023-02-06T07:12:23.267Z,19.48
2023-02-06T07:14:50.398Z,20.50
2023-02-06T07:17:17.515Z,21.50
2023-02-06T07:19:48.402Z,19.73
2023-02-06T07:22:16.010Z,19.45
2023-02-06T07:24:43.448Z,19.92
2023-02-06T07:27:11.071Z,20.90
2023-02-06T07:29:38.630Z,21.33
2023-02-06T07:32:06.716Z,20.92
2023-02-06T07:34:34.081Z,20.65
2023-02-06T07:37:01.290Z,22.38
2023-02-06T07:39:28.647Z,23.23
2023-02-06T07:41:56.017Z,22.70
2023-02-06T07:44:30.174Z,24.20
2023-02-06T07:46:57.558Z,21.20
2023-02-06T07:49:25.026Z,23.25
2023-02-06T07:51:52.422Z,23.15
2023-02-06T07:54:20.796Z,23.95
2023-02-06T07:56:48.082Z,24.90
2023-02-06T07:59:15.159Z,24.35
2023-02-06T08:01:42.316Z,25.42
2023-02-06T08:04:10.973Z,24.27
2023-02-06T08:06:41.094Z,24.60
2023-02-06T08:11:36.195Z,23.95
2023-02-06T08:14:03.260Z,24.92
2023-02-06T08:16:30.883Z,24.25
2023-02-06T08:18:58.018Z,27.45
2023-02-06T08:21:26.004Z,27.52
2023-02-06T08:24:00.739Z,31.55
2023-02-06T08:26:30.040Z,29.70
2023-02-06T08:29:00.740Z,27.83
2023-02-06T08:31:31.036Z,26.33
2023-02-06T08:33:58.274Z,25.75
2023-02-06T08:36:26.400Z,24.83
2023-02-06T08:38:53.870Z,24.80
2023-02-06T08:41:25.304Z,24.70
2023-02-06T08:43:54.989Z,22.52
2023-02-06T08:46:23.418Z,22.55
2023-02-06T08:48:56.619Z,22.10
2023-02-06T08:51:27.987Z,22.10
2023-02-06T08:54:04.438Z,21.15
2023-02-06T08:56:34.254Z,18.42
2023-02-06T08:59:01.835Z,20.75
2023-02-06T09:01:32.204Z,21.45
2023-02-06T09:04:02.029Z,22.27
2023-02-06T09:06:29.529Z,18.95
2023-02-06T09:08:57.749Z,23.38
2023-02-06T09:11:26.512Z,19.42
2023-02-06T09:13:56.725Z,21.52
2023-02-06T09:16:24.624Z,19.83
2023-02-06T09:18:54.208Z,20.23
2023-02-06T09:21:24.711Z,17.90
2023-02-06T09:23:54.960Z,18.52
2023-02-06T09:26:28.989Z,15.73
2023-02-06T09:28:58.247Z,12.20
2023-02-06T09:31:26.895Z,14.73
2023-02-06T09:33:54.206Z,12.05
2023-02-06T09:36:22.102Z,16.08
2023-02-06T09:38:53.622Z,14.45
2023-02-06T09:41:51.238Z,13.50
2023-02-06T09:44:37.474Z,14.95
2023-02-06T09:47:33.940Z,11.43
2023-02-06T09:50:07.831Z,11.07
2023-02-06T09:53:08.947Z,9.38
2023-02-06T09:55:48.900Z,8.50
2023-02-06T09:58:34.268Z,8.27
2023-02-06T10:01:01.343Z,8.80
2023-02-06T10:03:34.508Z,9.45
2023-02-06T10:06:11.820Z,10.05
2023-02-06T10:08:44.891Z,9.20
2023-02-06T10:11:20.017Z,9.38
2023-02-06T10:13:55.550Z,9.30
2023-02-06T10:16:41.009Z,9.55
2023-02-06T10:19:35.897Z,9.18
2023-02-06T10:22:10.416Z,8.45
2023-02-06T10:24:45.916Z,8.63
2023-02-06T10:27:15.154Z,8.52
2023-02-06T10:29:45.282Z,8.23
2023-02-06T10:35:01.053Z,8.60
2023-02-06T10:38:06.202Z,8.25
2023-02-06T10:40:51.520Z,8.77
2023-02-06T10:43:49.476Z,8.63
2023-02-06T10:46:38.999Z,9.30
2023-02-06T10:49:06.151Z,10.70
2023-02-06T10:51:38.198Z,7.07
2023-02-06T10:54:26.389Z,7.60
2023-02-06T10:56:57.180Z,9.60
2023-02-06T10:59:34.660Z,9.73
2023-02-06T11:02:18.024Z,8.05
2023-02-06T11:04:52.563Z,8.32
2023-02-06T11:07:27.064Z,7.78
2023-02-06T11:09:54.610Z,8.40
2023-02-06T11:12:31.344Z,8.63
2023-02-06T11:15:03.461Z,6.85
2023-02-06T11:17:31.671Z,7.20
2023-02-06T11:20:17.337Z,8.27
2023-02-06T11:22:52.739Z,8.45
2023-02-06T11:25:25.867Z,7.25
2023-02-06T11:27:53.648Z,6.75
2023-02-06T11:30:35.159Z,6.75
2023-02-06T11:33:36.722Z,5.50
2023-02-06T11:36:05.439Z,6.03
2023-02-06T11:38:33.276Z,6.40
2023-02-06T11:41:03.810Z,5.97
2023-02-06T11:43:33.845Z,6.45
2023-02-06T11:46:14.432Z,7.15
2023-02-06T11:49:01.201Z,5.82
2023-02-06T11:51:46.992Z,6.60
2023-02-06T11:54:28.181Z,6.90
2023-02-06T11:57:09.604Z,7.30
2023-02-06T11:59:49.609Z,6.95
2023-02-06T12:02:49.977Z,8.10
2023-02-06T12:05:20.154Z,8.75
2023-02-06T12:10:23.764Z,6.32
2023-02-06T12:12:58.121Z,7.40
2023-02-06T12:15:46.663Z,6.75
2023-02-06T12:18:19.053Z,6.43
2023-02-06T12:20:53.562Z,6.88
2023-02-06T12:23:34.012Z,6.65
2023-02-06T12:26:08.434Z,6.40
2023-02-06T12:28:52.826Z,8.70
2023-02-06T12:31:35.233Z,6.40
2023-02-06T12:34:11.419Z,8.25
2023-02-06T12:36:53.654Z,7.07
2023-02-06T12:39:23.569Z,7.20
2023-02-06T12:41:56.629Z,6.70
2023-02-06T12:44:28.452Z,6.22
2023-02-06T12:47:05.431Z,5.72
2023-02-06T12:49:40.099Z,6.03
2023-02-06T12:52:33.074Z,5.35
2023-02-06T12:55:11.964Z,6.32
2023-02-06T12:57:40.056Z,6.28
2023-02-06T13:00:34.492Z,7.20
2023-02-06T13:03:40.903Z,5.85
2023-02-06T13:06:27.654Z,7.22
2023-02-06T13:09:06.655Z,7.20
2023-02-06T13:11:40.845Z,6.78
2023-02-06T13:14:19.586Z,8.20
2023-02-06T13:16:54.191Z,8.75
2023-02-06T13:19:26.909Z,8.65
2023-02-06T13:22:14.539Z,8.30
2023-02-06T13:24:49.447Z,7.47
2023-02-06T13:27:36.411Z,8.88
2023-02-06T13:30:31.191Z,9.73
2023-02-06T13:33:19.258Z,9.32
2023-02-06T13:36:09.897Z,7.82
2023-02-06T13:38:39.000Z,8.00
2023-02-06T13:41:15.297Z,9.25
2023-02-06T13:43:51.742Z,10.02
2023-02-06T13:46:23.651Z,9.32
2023-02-06T13:49:15.015Z,10.45
2023-02-06T13:51:56.719Z,10.77
2023-02-06T13:54:26.853Z,11.25
2023-02-06T13:59:35.673Z,9.38
2023-02-06T14:02:14.983Z,10.07
2023-02-06T14:04:45.533Z,10.47
2023-02-06T14:08:06.168Z,9.50
2023-02-06T14:10:44.223Z,9.85
2023-02-06T14:13:26.417Z,10.13
2023-02-06T14:16:14.642Z,10.65
2023-02-06T14:18:44.399Z,10.35
2023-02-06T14:21:24.965Z,9.65
2023-02-06T14:24:23.264Z,10.05
2023-02-06T14:27:02.410Z,9.40
2023-02-06T14:29:44.747Z,10.00
2023-02-06T14:32:40.686Z,10.18
2023-02-06T14:35:25.871Z,8.93
2023-02-06T14:38:28.182Z,10.77
2023-02-06T14:40:59.523Z,11.98
2023-02-06T14:43:30.388Z,10.45
2023-02-06T14:46:10.659Z,9.98
2023-02-06T14:48:58.447Z,11.35
2023-02-06T14:51:38.301Z,10.57
2023-02-06T14:54:26.933Z,10.75
2023-02-06T14:56:59.576Z,10.48
2023-02-06T14:59:26.875Z,10.65
2023-02-06T15:01:55.892Z,10.10
2023-02-06T15:04:26.437Z,10.23
2023-02-06T15:07:02.159Z,9.85
2023-02-06T15:09:34.433Z,9.32
2023-02-06T15:12:05.099Z,9.68
2023-02-06T15:14:35.176Z,10.05
2023-02-06T15:17:03.046Z,9.40
2023-02-06T15:19:32.845Z,9.93
2023-02-06T15:22:06.948Z,9.05
2023-02-06T15:24:46.265Z,9.60
2023-02-06T15:27:30.353Z,9.30
2023-02-06T15:29:58.441Z,9.40
2023-02-06T15:32:33.227Z,9.85
2023-02-06T15:35:01.789Z,9.57
2023-02-06T15:37:32.935Z,9.77
2023-02-06T15:40:23.184Z,9.32
2023-02-06T15:45:27.727Z,10.02
2023-02-06T15:47:56.084Z,9.15
2023-02-06T15:50:27.949Z,9.57
2023-02-06T15:52:56.327Z,9.45
2023-02-06T15:55:31.572Z,9.32
2023-02-06T15:58:00.663Z,9.40
2023-02-06T16:00:31.468Z,8.60
2023-02-06T16:03:05.304Z,9.07
2023-02-06T16:05:40.867Z,9.32
2023-02-06T16:08:16.688Z,8.52
2023-02-06T16:10:50.489Z,8.55
2023-02-06T16:13:21.719Z,8.95
2023-02-06T16:16:07.500Z,9.43
2023-02-06T16:18:37.877Z,9.18
2023-02-06T16:21:29.167Z,9.25
2023-02-06T16:24:07.891Z,8.90
2023-02-06T16:26:49.427Z,10.38
2023-02-06T16:29:31.960Z,9.13
2023-02-06T16:32:14.971Z,9.68
2023-02-06T16:34:44.484Z,8.88
2023-02-06T16:37:23.738Z,9.43
2023-02-06T16:39:50.990Z,10.60
2023-02-06T16:42:21.782Z,10.38
2023-02-06T16:44:52.501Z,9.60
2023-02-06T16:47:21.448Z,9.40
2023-02-06T16:49:48.555Z,9.40
2023-02-06T16:52:29.297Z,9.75
2023-02-06T16:55:00.577Z,10.50
2023-02-06T16:57:41.925Z,13.07
2023-02-06T17:00:16.438Z,12.63
2023-02-06T17:02:43.561Z,13.77
2023-02-06T17:05:10.888Z,19.83
2023-02-06T17:07:38.443Z,20.05
2023-02-06T17:10:06.291Z,11.57
2023-02-06T17:12:34.644Z,11.27
2023-02-06T17:15:02.122Z,10.55
2023-02-06T17:17:29.342Z,11.68
2023-02-06T17:19:56.648Z,10.48
2023-02-06T17:22:24.118Z,11.07
2023-02-06T17:24:51.558Z,10.32
2023-02-06T17:27:21.739Z,12.05
2023-02-06T17:29:50.823Z,12.23
2023-02-06T17:32:22.400Z,12.18
2023-02-06T17:34:51.706Z,11.55
2023-02-06T17:37:22.161Z,12.40
2023-02-06T17:39:51.600Z,12.77
2023-02-06T17:42:19.453Z,11.13
2023-02-06T17:44:46.584Z,13.02
2023-02-06T17:47:13.763Z,11.77
2023-02-06T17:49:40.887Z,11.88
2023-02-06T17:52:07.959Z,14.48
2023-02-06T17:54:35.887Z,14.18
2023-02-06T17:57:03.433Z,14.65
2023-02-06T17:59:30.558Z,12.98
2023-02-06T18:01:57.807Z,13.55
2023-02-06T18:04:25.365Z,13.07
2023-02-06T18:06:52.505Z,12.60
2023-02-06T18:09:19.776Z,15.38
2023-02-06T18:11:47.030Z,15.57
2023-02-06T18:14:14.233Z,15.20
2023-02-06T18:16:43.130Z,15.73
2023-02-06T18:19:10.757Z,16.05
2023-02-06T18:21:39.916Z,16.35
2023-02-06T18:24:07.597Z,16.08
2023-02-06T18:26:34.830Z,15.63
2023-02-06T18:29:06.142Z,16.15
2023-02-06T18:31:35.289Z,17.05
2023-02-06T18:34:08.100Z,18.13
2023-02-06T18:36:36.297Z,16.77
2023-02-06T18:39:04.400Z,17.95
2023-02-06T18:41:49.900Z,17.85
2023-02-06T18:44:17.073Z,16.23
2023-02-06T18:46:44.292Z,18.55
2023-02-06T18:49:11.502Z,19.15
2023-02-06T18:51:38.603Z,22.00
2023-02-06T18:54:07.997Z,29.58
2023-02-06T18:56:35.501Z,32.97
2023-02-06T18:59:04.180Z,38.28
2023-02-06T19:01:32.086Z,34.83
2023-02-06T19:04:00.097Z,25.73
2023-02-06T19:06:35.560Z,21.90
2023-02-06T19:09:07.404Z,19.10
2023-02-06T19:11:36.199Z,17.73
2023-02-06T19:14:05.036Z,16.60
2023-02-06T19:16:32.995Z,17.15
2023-02-06T19:19:00.464Z,15.38
2023-02-06T19:21:28.408Z,15.55
2023-02-06T19:23:58.536Z,17.40
2023-02-06T19:28:53.891Z,16.58
2023-02-06T19:31:24.220Z,19.30
2023-02-06T19:33:56.689Z,21.52
2023-02-06T19:36:25.414Z,20.98
2023-02-06T19:38:58.826Z,23.10
2023-02-06T19:41:28.063Z,22.67
2023-02-06T19:43:57.574Z,23.73
2023-02-06T19:46:26.812Z,22.10
2023-02-06T19:48:55.162Z,23.58
2023-02-06T19:51:25.497Z,22.95
2023-02-06T19:53:54.765Z,23.40
2023-02-06T19:56:26.438Z,22.17
2023-02-06T19:59:05.950Z,29.60
2023-02-06T20:01:33.292Z,38.67
2023-02-06T20:04:02.118Z,36.25
2023-02-06T20:06:35.134Z,35.65
2023-02-06T20:09:03.681Z,32.42
2023-02-06T20:11:32.242Z,30.77
2023-02-06T20:13:59.771Z,26.50
2023-02-06T20:16:29.500Z,26.45
2023-02-06T20:18:57.250Z,26.92
2023-02-06T20:21:39.195Z,25.08
2023-02-06T20:24:10.740Z,23.60
2023-02-06T20:26:39.639Z,24.55
2023-02-06T20:29:08.393Z,24.25
2023-02-06T20:31:36.384Z,23.30
2023-02-06T20:34:04.028Z,23.73
2023-02-06T20:36:31.254Z,22.08
2023-02-06T20:39:00.247Z,22.95
2023-02-06T20:41:31.394Z,24.90
2023-02-06T20:44:00.142Z,24.38
2023-02-06T20:46:29.961Z,24.70
2023-02-06T20:48:59.714Z,23.15
2023-02-06T20:51:27.680Z,22.98
2023-02-06T20:53:54.978Z,22.25
2023-02-06T20:56:23.107Z,23.17
2023-02-06T20:58:51.418Z,23.15
2023-02-06T21:01:23.862Z,22.90
2023-02-06T21:03:54.458Z,23.40
2023-02-06T21:06:22.226Z,22.52
2023-02-06T21:08:50.510Z,22.58
2023-02-06T21:11:18.182Z,22.17
2023-02-06T21:13:45.388Z,23.77
2023-02-06T21:16:13.653Z,22.98
2023-02-06T21:18:42.806Z,23.42
2023-02-06T21:21:14.400Z,24.42
2023-02-06T21:23:43.850Z,25.48
2023-02-06T21:26:13.032Z,26.70
2023-02-06T21:28:41.190Z,24.40
2023-02-06T21:31:13.137Z,26.10
2023-02-06T21:33:40.319Z,27.15
2023-02-06T21:36:07.936Z,27.45
2023-02-06T21:38:39.355Z,27.13
2023-02-06T21:41:11.876Z,24.25
2023-02-06T21:43:40.574Z,25.67
2023-02-06T21:46:10.026Z,24.73
2023-02-06T21:48:37.508Z,24.17
2023-02-06T21:51:15.781Z,27.75
2023-02-06T21:53:44.687Z,28.83
2023-02-06T21:56:15.839Z,32.83
2023-02-06T21:58:42.958Z,31.60
2023-02-06T22:01:18.683Z,30.25
2023-02-06T22:03:47.273Z,34.85
2023-02-06T22:06:15.192Z,31.48
2023-02-06T22:08:44.698Z,33.53
2023-02-06T22:11:30.644Z,33.45
2023-02-06T22:14:00.003Z,29.75
2023-02-06T22:16:28.110Z,33.15
2023-02-06T22:18:56.682Z,33.50
2023-02-06T22:21:26.691Z,35.20
2023-02-06T22:23:57.795Z,32.72
2023-02-06T22:26:25.650Z,32.83
2023-02-06T22:28:52.772Z,34.72
2023-02-06T22:31:25.060Z,34.65
2023-02-06T22:33:53.219Z,34.88
2023-02-06T22:36:26.137Z,36.47
2023-02-06T22:38:59.695Z,35.38
2023-02-06T22:41:27.836Z,34.25
2023-02-06T22:43:54.989Z,34.90
2023-02-06T22:46:32.306Z,35.20
2023-02-06T22:49:00.098Z,36.20
2023-02-06T22:51:28.031Z,34.90
2023-02-06T22:53:55.584Z,34.92
2023-02-06T22:56:28.138Z,36.28
2023-02-06T22:59:02.415Z,35.53
2023-02-06T23:01:36.244Z,35.10
2023-02-06T23:04:05.249Z,34.38
2023-02-06T23:06:33.830Z,32.95
2023-02-06T23:09:02.756Z,33.95
2023-02-06T23:11:31.905Z,32.90
2023-02-06T23:14:01.728Z,37.55
2023-02-06T23:16:30.315Z,35.67
2023-02-06T23:18:57.548Z,31.13
2023-02-06T23:21:26.006Z,30.83
2023-02-06T23:23:55.290Z,31.30
2023-02-06T23:26:22.691Z,31.65
2023-02-06T23:28:50.047Z,30.40
2023-02-06T23:31:17.612Z,30.70
2023-02-06T23:33:44.807Z,29.65
2023-02-06T23:36:16.058Z,29.13
2023-02-06T23:38:44.205Z,28.27
2023-02-06T23:41:19.995Z,28.48
2023-02-06T23:43:58.464Z,34.13
2023-02-06T23:46:26.798Z,33.22
2023-02-06T23:48:54.841Z,38.20
2023-02-06T23:51:22.818Z,31.58
2023-02-06T23:53:50.430Z,25.63
2023-02-06T23:56:28.035Z,24.50
2023-02-06T23:58:57.131Z,23.58
